Time;durP1;ratioP1;P1;durP2;ratioP2;P2;SDS_P1;SDS_P2;PMS_P1;PMS_P2;Temp;Humidity;BMP_temperature;BMP_pressure;BME280_temperature;BME280_humidity;BME280_pressure;Samples;Min_cycle;Max_cycle;Signal;HPM_P1;HPM_P2
2022/09/30 00:01:06;;;;;;;12.25;11.05;;;11.30;99.90;;;;;;5058681;28;20243;-76
2022/09/30 00:03:33;;;;;;;12.40;11.10;;;11.20;99.90;;;;;;5058178;28;20298;-77
2022/09/30 00:06:01;;;;;;;12.38;11.23;;;11.20;99.90;;;;;;5056168;28;20279;-75
2022/09/30 00:08:28;;;;;;;16.83;12.55;;;11.10;99.90;;;;;;5054464;28;21512;-77
2022/09/30 00:11:03;;;;;;;12.63;11.30;;;11.10;99.90;;;;;;5053971;28;20297;-76
2022/09/30 00:13:31;;;;;;;11.60;10.55;;;11.00;99.90;;;;;;5053799;28;20205;-76
2022/09/30 00:15:59;;;;;;;13.35;11.95;;;10.90;99.90;;;;;;5049016;28;20210;-76
2022/09/30 00:18:27;;;;;;;12.43;11.00;;;10.90;99.90;;;;;;5043448;28;20221;-77
2022/09/30 00:20:54;;;;;;;12.07;10.73;;;10.90;99.90;;;;;;5042856;28;20293;-75
2022/09/30 00:23:22;;;;;;;12.52;10.77;;;10.80;99.90;;;;;;5039230;28;20233;-74
2022/09/30 00:25:50;;;;;;;11.32;10.18;;;10.90;99.90;;;;;;5044100;28;20234;-76
2022/09/30 00:28:19;;;;;;;11.20;10.20;;;10.90;99.90;;;;;;5049584;28;20227;-74
2022/09/30 00:30:47;;;;;;;12.38;10.52;;;10.90;99.90;;;;;;5044880;28;20208;-74
2022/09/30 00:33:15;;;;;;;13.02;11.82;;;10.80;99.90;;;;;;5043769;28;20648;-75
2022/09/30 00:35:42;;;;;;;10.77;9.88;;;10.80;99.90;;;;;;5053138;28;20262;-75
2022/09/30 00:38:09;;;;;;;10.68;9.60;;;10.80;99.90;;;;;;5055195;28;20312;-75
2022/09/30 00:40:38;;;;;;;11.13;10.13;;;10.90;99.90;;;;;;5052813;28;20208;-77
2022/09/30 00:43:13;;;;;;;13.10;11.80;;;10.90;99.90;;;;;;5052966;28;20216;-76
2022/09/30 00:45:42;;;;;;;10.63;9.63;;;10.90;99.90;;;;;;5046531;28;20236;-75
2022/09/30 00:48:17;;;;;;;12.57;11.38;;;10.90;99.90;;;;;;5053486;28;20232;-75
2022/09/30 00:50:47;;;;;;;12.93;11.73;;;10.80;99.90;;;;;;5048170;28;20206;-75
2022/09/30 00:53:17;;;;;;;13.10;11.77;;;10.70;99.90;;;;;;5059208;28;20312;-74
2022/09/30 00:55:50;;;;;;;12.35;11.35;;;10.80;99.90;;;;;;5059705;28;20249;-75
2022/09/30 00:58:22;;;;;;;12.82;11.73;;;10.70;99.90;;;;;;5053943;28;20285;-76
2022/09/30 01:00:50;;;;;;;13.38;12.00;;;10.70;99.90;;;;;;5052498;28;20226;-75
2022/09/30 01:03:22;;;;;;;15.15;13.65;;;10.70;99.90;;;;;;5036190;28;20225;-76
2022/09/30 01:05:49;;;;;;;16.73;13.55;;;10.60;99.90;;;;;;5044496;28;20204;-76
2022/09/30 01:08:18;;;;;;;15.73;14.27;;;10.60;99.90;;;;;;5050471;28;20219;-76
2022/09/30 01:10:45;;;;;;;15.60;14.13;;;10.50;99.90;;;;;;5046262;28;20204;-77
2022/09/30 01:13:13;;;;;;;15.63;14.23;;;10.50;99.90;;;;;;5041113;28;20659;-76
2022/09/30 01:15:55;;;;;;;17.25;15.60;;;10.40;99.90;;;;;;5051572;28;20572;-74
2022/09/30 01:18:34;;;;;;;16.77;14.45;;;10.50;99.90;;;;;;5052923;28;20223;-77
2022/09/30 01:21:30;;;;;;;18.35;16.30;;;10.50;99.90;;;;;;5031975;28;20208;-76
2022/09/30 01:24:27;;;;;;;14.85;13.40;;;10.40;99.90;;;;;;5052389;28;20303;-77
2022/09/30 01:27:05;;;;;;;17.65;15.85;;;10.40;99.90;;;;;;5039123;28;20206;-76
2022/09/30 01:30:04;;;;;;;17.10;15.40;;;10.30;99.90;;;;;;5043089;28;20204;-75
2022/09/30 01:33:00;;;;;;;18.55;16.75;;;10.40;99.90;;;;;;5036616;28;20214;-76
2022/09/30 01:35:38;;;;;;;15.90;14.38;;;10.30;99.90;;;;;;5036823;28;20199;-76
2022/09/30 01:38:13;;;;;;;24.13;16.75;;;10.30;99.90;;;;;;5032249;28;20260;-74
2022/09/30 01:40:45;;;;;;;20.88;18.85;;;10.20;99.90;;;;;;5036171;28;20200;-77
2022/09/30 01:43:24;;;;;;;20.02;18.02;;;10.20;99.90;;;;;;5039798;28;20198;-76
2022/09/30 01:45:57;;;;;;;19.90;17.77;;;10.20;99.90;;;;;;5038703;28;20235;-75
2022/09/30 01:48:31;;;;;;;20.42;18.23;;;10.10;99.90;;;;;;5047938;28;20322;-75
2022/09/30 01:51:01;;;;;;;21.38;19.10;;;10.10;99.90;;;;;;5027136;28;20271;-76
2022/09/30 01:53:35;;;;;;;22.90;20.77;;;10.10;99.90;;;;;;5050098;28;20856;-75
2022/09/30 01:56:09;;;;;;;22.88;17.85;;;10.10;99.90;;;;;;5036790;28;20266;-74
2022/09/30 01:58:41;;;;;;;19.92;17.92;;;10.10;99.90;;;;;;5038655;28;20560;-74
2022/09/30 02:01:15;;;;;;;21.30;19.23;;;10.10;99.90;;;;;;5038118;28;20302;-75
2022/09/30 02:03:49;;;;;;;19.35;17.20;;;10.10;99.90;;;;;;5046030;28;20228;-75
2022/09/30 02:06:20;;;;;;;22.23;20.13;;;10.10;99.90;;;;;;5034407;28;20227;-75
2022/09/30 02:08:51;;;;;;;22.05;19.75;;;10.10;99.90;;;;;;5044017;28;20563;-76
2022/09/30 02:11:23;;;;;;;20.35;18.23;;;10.10;99.90;;;;;;5051068;28;20634;-75
2022/09/30 02:13:56;;;;;;;20.73;18.80;;;10.10;99.90;;;;;;5053265;28;20206;-75
2022/09/30 02:16:26;;;;;;;24.23;21.70;;;10.00;99.90;;;;;;5046200;28;20287;-76
2022/09/30 02:19:01;;;;;;;25.50;22.65;;;9.90;99.90;;;;;;5040142;28;20251;-75
2022/09/30 02:21:34;;;;;;;26.50;23.33;;;9.90;99.90;;;;;;5033738;28;20254;-75
2022/09/30 02:24:07;;;;;;;26.55;23.90;;;9.80;99.90;;;;;;5033777;28;20266;-76
2022/09/30 02:26:38;;;;;;;24.48;22.08;;;9.80;99.90;;;;;;5034197;28;20292;-75
2022/09/30 02:29:11;;;;;;;25.73;23.27;;;9.70;99.90;;;;;;5043498;28;20239;-75
2022/09/30 02:31:42;;;;;;;26.88;24.42;;;9.70;99.90;;;;;;5036645;28;20516;-76
2022/09/30 02:34:14;;;;;;;24.10;21.65;;;9.70;99.90;;;;;;5034186;28;20205;-75
2022/09/30 02:36:46;;;;;;;22.98;20.75;;;9.80;99.90;;;;;;5034498;28;20204;-75
2022/09/30 02:39:20;;;;;;;26.80;24.00;;;9.80;99.90;;;;;;5035263;28;20200;-74
2022/09/30 02:41:52;;;;;;;26.55;24.00;;;9.70;99.90;;;;;;5034106;28;20275;-75
2022/09/30 02:44:19;;;;;;;25.52;23.08;;;9.80;99.90;;;;;;5044944;28;20235;-74
2022/09/30 02:46:55;;;;;;;27.33;24.42;;;9.80;99.90;;;;;;5047949;28;20290;-74
2022/09/30 02:49:30;;;;;;;25.90;23.13;;;9.80;99.90;;;;;;5053955;28;20331;-74
2022/09/30 02:52:11;;;;;;;23.15;20.88;;;9.70;99.90;;;;;;5032731;28;20199;-77
2022/09/30 02:54:47;;;;;;;23.17;20.88;;;9.70;99.90;;;;;;5041296;28;20200;-77
2022/09/30 02:57:19;;;;;;;26.35;23.85;;;9.70;99.90;;;;;;5033136;28;20339;-75
2022/09/30 02:59:50;;;;;;;26.20;23.50;;;9.70;99.90;;;;;;5052703;28;20199;-74
2022/09/30 03:02:17;;;;;;;27.17;24.40;;;9.70;99.90;;;;;;5048451;28;20203;-76
2022/09/30 03:04:50;;;;;;;26.27;23.63;;;9.70;99.90;;;;;;5049036;28;20204;-77
2022/09/30 03:07:20;;;;;;;22.85;20.15;;;9.70;99.90;;;;;;5047893;28;20734;-75
2022/09/30 03:09:47;;;;;;;24.13;21.80;;;9.70;99.90;;;;;;5040694;28;20203;-75
2022/09/30 03:12:25;;;;;;;24.65;22.20;;;9.70;99.90;;;;;;5055382;28;20279;-75
2022/09/30 03:15:20;;;;;;;25.10;22.15;;;9.70;99.90;;;;;;5035727;28;20282;-74
2022/09/30 03:18:11;;;;;;;23.25;20.70;;;9.60;99.90;;;;;;5021752;28;20259;-75
2022/09/30 03:20:49;;;;;;;23.05;20.73;;;9.60;99.90;;;;;;5038765;28;20231;-76
2022/09/30 03:23:35;;;;;;;25.67;23.13;;;9.60;99.90;;;;;;5042036;28;20605;-75
2022/09/30 03:26:15;;;;;;;25.77;22.63;;;9.50;99.90;;;;;;5047460;28;20206;-74
2022/09/30 03:28:51;;;;;;;20.67;18.67;;;9.60;99.90;;;;;;5059324;28;20231;-76
2022/09/30 03:31:26;;;;;;;24.20;21.70;;;9.60;99.90;;;;;;5042941;28;20219;-74
2022/09/30 03:33:57;;;;;;;22.08;19.88;;;9.60;99.90;;;;;;5048971;28;20213;-77
2022/09/30 03:36:31;;;;;;;22.65;20.35;;;9.60;99.90;;;;;;5053644;28;20670;-77
2022/09/30 03:39:04;;;;;;;20.00;17.90;;;9.60;99.90;;;;;;5056461;28;20238;-73
2022/09/30 03:41:38;;;;;;;22.80;19.92;;;9.60;99.90;;;;;;5064220;28;20721;-74
2022/09/30 03:44:10;;;;;;;25.13;22.10;;;9.60;99.90;;;;;;5059567;28;20231;-77
2022/09/30 03:46:41;;;;;;;26.90;24.02;;;9.60;99.90;;;;;;5063399;28;20282;-74
2022/09/30 03:49:12;;;;;;;30.08;22.23;;;9.50;99.90;;;;;;5053494;28;20199;-75
2022/09/30 03:51:41;;;;;;;26.08;23.27;;;9.40;99.90;;;;;;5048268;28;20663;-76
2022/09/30 03:54:10;;;;;;;26.85;23.95;;;9.40;99.90;;;;;;5044143;28;20207;-75
2022/09/30 03:56:41;;;;;;;28.05;23.35;;;9.40;99.90;;;;;;5044726;28;20270;-75
2022/09/30 03:59:11;;;;;;;27.55;21.48;;;9.40;99.90;;;;;;5048852;28;20245;-75
2022/09/30 04:01:38;;;;;;;24.35;21.85;;;9.30;99.90;;;;;;5049232;28;20200;-75
2022/09/30 04:04:05;;;;;;;28.05;22.85;;;9.30;99.90;;;;;;5051609;28;20227;-74
2022/09/30 04:06:32;;;;;;;30.90;24.25;;;9.30;99.90;;;;;;5042544;28;20192;-74
2022/09/30 04:09:00;;;;;;;25.45;22.50;;;9.30;99.90;;;;;;5044706;28;20307;-74
2022/09/30 04:11:27;;;;;;;29.15;24.00;;;9.30;99.90;;;;;;5052952;28;20725;-75
2022/09/30 04:13:54;;;;;;;28.23;25.02;;;9.20;99.90;;;;;;5043443;28;20199;-74
2022/09/30 04:16:21;;;;;;;27.83;23.45;;;9.20;99.90;;;;;;5047318;28;20286;-76
2022/09/30 04:18:48;;;;;;;30.77;25.60;;;9.20;99.90;;;;;;5046238;28;20251;-76
2022/09/30 04:21:16;;;;;;;27.17;24.35;;;9.20;99.90;;;;;;5052857;28;20213;-76
2022/09/30 04:23:43;;;;;;;28.00;24.42;;;9.20;99.90;;;;;;5046608;28;20204;-73
2022/09/30 04:26:14;;;;;;;29.95;25.73;;;9.20;99.90;;;;;;5041456;28;20224;-74
2022/09/30 04:28:41;;;;;;;27.55;24.58;;;9.20;99.90;;;;;;5046562;28;20261;-76
2022/09/30 04:31:10;;;;;;;24.92;21.75;;;9.20;99.90;;;;;;5053574;28;20679;-74
2022/09/30 04:33:37;;;;;;;27.50;24.60;;;9.30;99.90;;;;;;5052270;28;20202;-75
2022/09/30 04:36:05;;;;;;;31.90;27.10;;;9.30;99.90;;;;;;5051608;28;20195;-75
2022/09/30 04:38:33;;;;;;;30.08;24.02;;;9.20;99.90;;;;;;5053355;28;20289;-75
2022/09/30 04:41:02;;;;;;;28.58;25.02;;;9.20;99.90;;;;;;5049614;28;20204;-75
2022/09/30 04:43:31;;;;;;;27.05;23.10;;;9.10;99.90;;;;;;5050366;28;20650;-74
2022/09/30 04:45:58;;;;;;;41.65;29.05;;;9.20;99.90;;;;;;5045699;28;20285;-75
2022/09/30 04:48:26;;;;;;;26.90;24.10;;;9.10;99.90;;;;;;5044042;28;20327;-76
2022/09/30 04:50:54;;;;;;;33.28;28.10;;;9.10;99.90;;;;;;5042686;28;20196;-74
2022/09/30 04:53:21;;;;;;;28.85;25.73;;;9.10;99.90;;;;;;5048031;28;20758;-75
2022/09/30 04:55:49;;;;;;;29.95;26.83;;;9.10;99.90;;;;;;5047386;28;20228;-75
2022/09/30 04:58:16;;;;;;;25.52;22.75;;;9.10;99.90;;;;;;5048122;28;20223;-74
2022/09/30 05:00:44;;;;;;;35.88;28.02;;;9.10;99.90;;;;;;5046285;28;20201;-74
2022/09/30 05:03:11;;;;;;;30.23;26.90;;;9.10;99.90;;;;;;5038334;28;20200;-75
2022/09/30 05:05:38;;;;;;;30.63;27.35;;;9.10;99.90;;;;;;5047237;28;20251;-74
2022/09/30 05:08:05;;;;;;;33.05;26.45;;;9.10;99.90;;;;;;5042264;28;20223;-76
2022/09/30 05:10:32;;;;;;;36.80;29.10;;;9.10;99.90;;;;;;5046102;28;20210;-75
2022/09/30 05:12:59;;;;;;;27.60;24.70;;;9.10;99.90;;;;;;5046944;28;20576;-79
2022/09/30 05:15:27;;;;;;;66.07;27.63;;;9.10;99.90;;;;;;5044590;28;20196;-76
2022/09/30 05:17:55;;;;;;;30.33;27.02;;;9.20;99.90;;;;;;5043769;28;20306;-76
2022/09/30 05:20:23;;;;;;;33.25;28.17;;;9.20;99.90;;;;;;5066343;28;20223;-74
2022/09/30 05:22:55;;;;;;;34.45;26.98;;;9.20;99.90;;;;;;5041416;28;20231;-74
2022/09/30 05:25:22;;;;;;;27.30;24.40;;;9.30;99.90;;;;;;5053621;28;20223;-76
2022/09/30 05:27:49;;;;;;;26.10;23.30;;;9.30;99.90;;;;;;5049219;28;20234;-76
2022/09/30 05:30:16;;;;;;;33.97;26.48;;;9.30;99.90;;;;;;5041581;28;20203;-75
2022/09/30 05:32:44;;;;;;;26.85;24.02;;;9.30;99.90;;;;;;5047018;28;20210;-75
2022/09/30 05:35:13;;;;;;;27.80;24.65;;;9.40;99.90;;;;;;5049436;28;20253;-75
2022/09/30 05:37:40;;;;;;;31.27;26.48;;;9.40;99.90;;;;;;5053374;28;20310;-75
2022/09/30 05:40:09;;;;;;;30.90;26.83;;;9.40;99.90;;;;;;5040943;28;20289;-74
2022/09/30 05:42:36;;;;;;;29.80;26.08;;;9.40;99.90;;;;;;5045686;28;20553;-74
2022/09/30 05:45:05;;;;;;;32.03;27.38;;;9.40;99.90;;;;;;5042548;28;20553;-73
2022/09/30 05:47:32;;;;;;;30.73;26.33;;;9.40;99.90;;;;;;5047186;28;20246;-76
2022/09/30 05:50:00;;;;;;;26.38;23.67;;;9.50;99.90;;;;;;5045268;28;20204;-75
2022/09/30 05:52:28;;;;;;;31.05;25.02;;;9.60;99.90;;;;;;5047332;28;20282;-76
2022/09/30 05:54:57;;;;;;;23.25;20.67;;;9.60;99.90;;;;;;5051099;28;20195;-74
2022/09/30 05:57:25;;;;;;;26.95;23.73;;;9.60;99.90;;;;;;5039561;28;20224;-76
2022/09/30 05:59:52;;;;;;;31.70;25.48;;;9.70;99.90;;;;;;5045028;28;20661;-77
2022/09/30 06:02:18;;;;;;;27.05;22.42;;;9.50;99.90;;;;;;5045560;28;20200;-75
2022/09/30 06:04:45;;;;;;;29.23;25.65;;;9.50;99.90;;;;;;5052083;28;20310;-75
2022/09/30 06:07:13;;;;;;;32.47;24.77;;;9.50;99.90;;;;;;5045626;28;20307;-73
2022/09/30 06:09:42;;;;;;;27.23;24.30;;;9.50;99.90;;;;;;5050757;28;20599;-75
2022/09/30 06:12:09;;;;;;;24.83;22.05;;;9.60;99.90;;;;;;5040143;28;20200;-76
2022/09/30 06:14:36;;;;;;;33.05;23.55;;;9.60;99.90;;;;;;5047913;28;20203;-75
2022/09/30 06:17:05;;;;;;;27.08;24.27;;;9.60;99.90;;;;;;5050097;28;20303;-75
2022/09/30 06:19:34;;;;;;;33.15;26.73;;;9.60;99.90;;;;;;5045608;28;20204;-75
2022/09/30 06:22:01;;;;;;;27.35;24.38;;;9.60;99.90;;;;;;5046202;28;20308;-75
2022/09/30 06:24:28;;;;;;;27.33;24.40;;;9.70;99.90;;;;;;5050492;28;20204;-74
2022/09/30 06:26:56;;;;;;;31.40;27.85;;;9.90;99.90;;;;;;5054363;28;20262;-76
2022/09/30 06:29:23;;;;;;;31.48;27.88;;;10.00;99.90;;;;;;5044124;28;20228;-76
2022/09/30 06:31:50;;;;;;;27.67;24.98;;;10.10;99.90;;;;;;5050293;28;20236;-74
2022/09/30 06:34:17;;;;;;;19.95;17.95;;;10.70;99.90;;;;;;5049746;28;20199;-74
2022/09/30 06:36:44;;;;;;;18.85;17.10;;;11.50;99.90;;;;;;5055919;28;20286;-76
2022/09/30 06:39:11;;;;;;;17.60;13.82;;;12.20;99.90;;;;;;5047433;28;20219;-76
2022/09/30 06:41:42;;;;;;;12.30;11.15;;;13.40;99.90;;;;;;5042455;28;20227;-78
2022/09/30 06:44:11;;;;;;;12.35;11.15;;;14.30;99.90;;;;;;5037985;28;20747;-78
2022/09/30 06:46:38;;;;;;;14.00;11.82;;;15.40;99.90;;;;;;5048903;28;20253;-77
2022/09/30 06:49:06;;;;;;;14.17;12.77;;;16.00;99.90;;;;;;5045817;28;20244;-77
2022/09/30 06:51:35;;;;;;;12.60;11.43;;;16.60;99.90;;;;;;5042939;28;20455;-77
2022/09/30 06:54:02;;;;;;;14.53;11.73;;;17.30;99.90;;;;;;5053814;28;20822;-77
2022/09/30 06:56:31;;;;;;;10.13;9.23;;;17.70;99.90;;;;;;5053268;28;20459;-78
2022/09/30 06:58:58;;;;;;;12.47;10.47;;;18.40;99.90;;;;;;5049688;28;20476;-77
2022/09/30 07:01:27;;;;;;;12.77;11.57;;;18.40;99.90;;;;;;5056418;28;20452;-77
2022/09/30 07:03:56;;;;;;;12.37;11.07;;;18.70;99.60;;;;;;5060367;28;20460;-78
2022/09/30 07:06:25;;;;;;;11.23;10.23;;;19.40;99.20;;;;;;5072663;28;20524;-79
2022/09/30 07:08:53;;;;;;;11.30;10.20;;;19.60;97.50;;;;;;5047613;28;20470;-78
2022/09/30 07:11:20;;;;;;;9.83;8.93;;;19.90;96.20;;;;;;5047278;28;20476;-77
2022/09/30 07:13:48;;;;;;;11.03;9.57;;;19.80;95.80;;;;;;5040808;28;20449;-74
2022/09/30 07:16:17;;;;;;;10.27;9.27;;;20.40;95.40;;;;;;5042484;28;20457;-77
2022/09/30 07:18:45;;;;;;;12.97;11.80;;;21.10;94.10;;;;;;5043221;28;20525;-77
2022/09/30 07:21:14;;;;;;;11.50;10.13;;;20.80;93.60;;;;;;5045462;28;20465;-77
2022/09/30 07:23:46;;;;;;;11.43;10.40;;;20.90;93.40;;;;;;5042519;28;20519;-76
2022/09/30 07:26:14;;;;;;;12.43;11.33;;;20.70;93.20;;;;;;5045775;28;20489;-76
2022/09/30 07:28:42;;;;;;;11.80;10.70;;;20.60;93.00;;;;;;5047029;28;21138;-78
2022/09/30 07:31:11;;;;;;;11.93;10.80;;;20.70;93.80;;;;;;5041842;28;20450;-78
2022/09/30 07:33:39;;;;;;;11.47;10.37;;;21.20;93.20;;;;;;5048810;28;20526;-78
2022/09/30 07:36:09;;;;;;;11.00;10.10;;;21.20;92.70;;;;;;5046589;28;20430;-77
2022/09/30 07:38:39;;;;;;;10.03;9.03;;;21.70;92.20;;;;;;5047940;28;20505;-76
2022/09/30 07:41:09;;;;;;;10.73;9.77;;;22.40;91.40;;;;;;5043391;28;20867;-77
2022/09/30 07:43:38;;;;;;;11.00;10.00;;;22.70;90.30;;;;;;5041737;28;20491;-77
2022/09/30 07:46:07;;;;;;;10.53;9.60;;;22.70;89.90;;;;;;5048741;28;20480;-75
2022/09/30 07:48:42;;;;;;;11.37;10.37;;;22.10;89.80;;;;;;5049798;28;20470;-76
2022/09/30 07:51:11;;;;;;;10.53;9.53;;;22.30;90.50;;;;;;5032876;28;20528;-77
2022/09/30 07:53:38;;;;;;;11.63;10.57;;;21.60;90.30;;;;;;5039073;28;20985;-75
2022/09/30 07:56:06;;;;;;;12.00;10.90;;;21.70;90.60;;;;;;5040653;28;20493;-77
2022/09/30 07:58:33;;;;;;;12.63;11.40;;;22.00;90.90;;;;;;5046136;28;20556;-78
2022/09/30 08:01:00;;;;;;;11.33;10.13;;;22.10;90.20;;;;;;5045474;28;20454;-78
2022/09/30 08:03:27;;;;;;;11.97;10.83;;;22.10;90.70;;;;;;5050442;28;20488;-77
2022/09/30 08:05:54;;;;;;;10.23;9.20;;;22.40;90.10;;;;;;5042560;28;20576;-78
2022/09/30 08:08:22;;;;;;;14.60;10.87;;;22.70;90.00;;;;;;5049618;28;21010;-76
2022/09/30 08:10:49;;;;;;;11.27;9.63;;;22.90;88.90;;;;;;5041348;28;20585;-78
2022/09/30 08:13:18;;;;;;;13.27;10.40;;;22.80;88.70;;;;;;5043322;28;20973;-77
2022/09/30 08:15:45;;;;;;;10.97;9.10;;;23.00;88.40;;;;;;5047829;28;20438;-77
2022/09/30 08:18:12;;;;;;;11.17;10.10;;;23.00;88.80;;;;;;5047203;28;20583;-77
2022/09/30 08:20:39;;;;;;;10.30;9.30;;;23.30;87.60;;;;;;5051045;28;20453;-79
2022/09/30 08:23:06;;;;;;;10.80;9.30;;;23.90;86.40;;;;;;5040682;28;20487;-77
2022/09/30 08:25:39;;;;;;;9.73;8.83;;;23.70;85.60;;;;;;5061993;28;20553;-75
2022/09/30 08:28:06;;;;;;;9.20;8.40;;;23.50;85.30;;;;;;5066197;28;20469;-76
2022/09/30 08:30:35;;;;;;;11.57;10.27;;;23.80;85.40;;;;;;5045107;28;20450;-77
2022/09/30 08:33:02;;;;;;;9.07;8.17;;;23.80;85.20;;;;;;5038257;28;20439;-77
2022/09/30 08:35:29;;;;;;;8.43;7.63;;;24.00;85.10;;;;;;5038946;28;20454;-77
2022/09/30 08:37:56;;;;;;;11.60;10.17;;;23.90;83.60;;;;;;5048730;28;20469;-79
2022/09/30 08:40:28;;;;;;;9.73;8.83;;;23.40;84.80;;;;;;5044540;28;20527;-79
2022/09/30 08:43:21;;;;;;;10.07;9.07;;;23.20;85.10;;;;;;5048264;28;20905;-77
2022/09/30 08:45:58;;;;;;;10.13;9.13;;;23.00;84.50;;;;;;5042719;28;20480;-78
2022/09/30 08:48:39;;;;;;;11.23;9.80;;;23.20;86.30;;;;;;5027283;28;20553;-79
2022/09/30 08:51:23;;;;;;;11.40;10.20;;;23.70;84.90;;;;;;5050734;28;20476;-79
2022/09/30 08:53:51;;;;;;;9.97;8.50;;;24.00;83.20;;;;;;5040211;28;20480;-78
2022/09/30 08:56:27;;;;;;;10.43;9.63;;;24.40;82.90;;;;;;5044139;28;20567;-78
2022/09/30 08:58:59;;;;;;;10.77;9.80;;;24.40;82.70;;;;;;5048447;28;20465;-77
2022/09/30 09:01:31;;;;;;;11.23;10.17;;;23.80;82.90;;;;;;5040939;28;20471;-79
2022/09/30 09:04:00;;;;;;;11.07;9.43;;;24.10;83.60;;;;;;5046159;28;20458;-77
2022/09/30 09:06:33;;;;;;;9.17;8.43;;;24.80;81.70;;;;;;5050876;28;20477;-79
2022/09/30 09:09:16;;;;;;;10.17;8.93;;;25.00;81.50;;;;;;5043743;28;20881;-77
2022/09/30 09:11:56;;;;;;;11.13;10.17;;;24.80;80.30;;;;;;5056619;28;20461;-78
2022/09/30 09:14:39;;;;;;;14.67;9.70;;;24.30;80.20;;;;;;5060548;28;20438;-79
2022/09/30 09:17:24;;;;;;;10.20;9.30;;;24.30;81.80;;;;;;5058162;28;20892;-78
2022/09/30 09:20:04;;;;;;;9.53;8.60;;;24.60;81.50;;;;;;5046885;28;20508;-78
2022/09/30 09:22:32;;;;;;;10.10;9.07;;;25.20;80.00;;;;;;5049894;28;20464;-79
2022/09/30 09:25:01;;;;;;;9.40;8.50;;;25.00;80.40;;;;;;5044500;28;20956;-78
2022/09/30 09:27:41;;;;;;;10.73;9.63;;;25.00;79.70;;;;;;5043906;28;20509;-78
2022/09/30 09:30:12;;;;;;;9.90;8.80;;;24.80;81.10;;;;;;5050330;28;20438;-76
2022/09/30 09:32:40;;;;;;;9.73;8.60;;;24.30;80.90;;;;;;5046456;28;20534;-77
2022/09/30 09:35:15;;;;;;;10.10;9.20;;;24.70;81.10;;;;;;5042001;28;20462;-77
2022/09/30 09:40:55;;;;;;;12.40;11.20;;;25.10;80.30;;;;;;5041889;28;20811;-76
2022/09/30 09:43:32;;;;;;;14.33;9.33;;;24.50;80.20;;;;;;5028097;28;20458;-77
2022/09/30 09:46:09;;;;;;;11.80;9.10;;;23.40;81.40;;;;;;5017592;28;20570;-80
2022/09/30 09:48:36;;;;;;;9.63;8.63;;;23.10;83.80;;;;;;5034157;28;20469;-75
2022/09/30 09:51:12;;;;;;;8.03;7.23;;;23.30;84.50;;;;;;5050065;28;20456;-76
2022/09/30 09:53:48;;;;;;;10.70;9.60;;;23.00;84.00;;;;;;5048801;28;20448;-75
2022/09/30 09:56:20;;;;;;;9.10;8.20;;;23.30;84.60;;;;;;5036664;28;20505;-76
2022/09/30 09:59:08;;;;;;;7.67;6.87;;;23.20;85.40;;;;;;5049708;28;20472;-76
2022/09/30 10:01:40;;;;;;;8.13;6.87;;;23.20;84.50;;;;;;5043485;28;20446;-76
2022/09/30 10:04:14;;;;;;;9.67;7.97;;;23.60;84.10;;;;;;5051226;28;20450;-77
2022/09/30 10:06:46;;;;;;;14.83;7.60;;;23.50;81.80;;;;;;5041054;28;20844;-76
2022/09/30 10:09:32;;;;;;;8.57;7.67;;;23.20;84.00;;;;;;5043517;28;20976;-76
2022/09/30 10:12:29;;;;;;;11.97;8.30;;;23.00;84.80;;;;;;5047791;28;20947;-75
2022/09/30 10:15:00;;;;;;;8.47;6.50;;;22.70;84.80;;;;;;5046184;28;20493;-76
2022/09/30 10:17:30;;;;;;;8.30;7.50;;;23.00;84.30;;;;;;5039907;28;21011;-75
2022/09/30 10:20:05;;;;;;;7.87;7.03;;;22.40;84.30;;;;;;5051730;28;20805;-74
2022/09/30 10:22:33;;;;;;;7.67;6.97;;;21.70;87.00;;;;;;5039170;28;20541;-76
2022/09/30 10:25:21;;;;;;;6.07;5.47;;;21.90;86.50;;;;;;5040550;28;20453;-75
2022/09/30 10:27:51;;;;;;;8.30;6.07;;;22.00;84.50;;;;;;5045927;28;20955;-76
2022/09/30 10:30:42;;;;;;;7.50;6.80;;;21.50;86.00;;;;;;5044255;28;20521;-76
2022/09/30 10:33:28;;;;;;;7.57;6.43;;;21.70;87.10;;;;;;5051666;28;20441;-76
2022/09/30 10:36:05;;;;;;;10.13;8.63;;;21.50;86.50;;;;;;5023167;28;20496;-76
2022/09/30 10:38:33;;;;;;;6.73;6.10;;;21.30;87.80;;;;;;5036996;28;20465;-77
2022/09/30 10:41:02;;;;;;;9.90;5.97;;;21.20;88.90;;;;;;5052812;28;20532;-78
2022/09/30 10:43:34;;;;;;;6.40;5.80;;;21.40;87.40;;;;;;5056219;28;20461;-77
2022/09/30 10:46:09;;;;;;;7.70;6.90;;;20.70;89.30;;;;;;5042267;28;20474;-76
2022/09/30 10:48:38;;;;;;;7.03;6.40;;;20.70;89.30;;;;;;5043406;28;20828;-77
2022/09/30 10:51:17;;;;;;;7.70;5.20;;;20.30;89.20;;;;;;5047479;28;20530;-77
2022/09/30 10:53:45;;;;;;;7.30;6.63;;;20.10;90.70;;;;;;5043504;28;20999;-80
2022/09/30 10:56:13;;;;;;;7.40;6.70;;;20.30;90.50;;;;;;5048295;28;20914;-77
2022/09/30 10:58:46;;;;;;;8.83;7.83;;;20.50;90.50;;;;;;5037597;28;20475;-76
2022/09/30 11:01:21;;;;;;;8.27;7.47;;;20.40;90.20;;;;;;5040663;28;20475;-76
2022/09/30 11:04:00;;;;;;;9.70;8.27;;;20.30;90.70;;;;;;5051687;28;20466;-76
2022/09/30 11:06:31;;;;;;;10.30;7.87;;;20.20;90.30;;;;;;5033693;28;20466;-77
2022/09/30 11:09:04;;;;;;;8.73;7.83;;;19.90;90.90;;;;;;5050607;28;20563;-77
2022/09/30 11:11:37;;;;;;;9.20;8.30;;;19.60;90.50;;;;;;5047300;28;20867;-76
2022/09/30 11:14:21;;;;;;;9.67;8.70;;;19.60;91.20;;;;;;5039030;28;20449;-77
2022/09/30 11:17:02;;;;;;;9.23;8.33;;;19.30;91.50;;;;;;5044350;28;20438;-77
2022/09/30 11:19:36;;;;;;;10.83;9.10;;;19.10;91.90;;;;;;5055253;28;20810;-78
2022/09/30 11:22:18;;;;;;;9.73;8.73;;;19.10;93.20;;;;;;5027805;28;20454;-78
2022/09/30 11:24:48;;;;;;;9.97;7.50;;;19.10;92.50;;;;;;5041395;28;20447;-76
2022/09/30 11:27:25;;;;;;;12.63;8.60;;;19.10;92.20;;;;;;5050446;28;20489;-77
2022/09/30 11:30:03;;;;;;;10.00;8.33;;;19.20;91.80;;;;;;5046354;28;20539;-77
2022/09/30 11:32:45;;;;;;;9.30;8.17;;;19.20;91.70;;;;;;5036725;28;20435;-76
2022/09/30 11:35:35;;;;;;;10.07;8.67;;;19.00;91.70;;;;;;5038944;28;20462;-78
2022/09/30 11:38:13;;;;;;;9.53;8.53;;;18.80;91.20;;;;;;5048939;28;20557;-78
2022/09/30 11:40:47;;;;;;;8.77;7.87;;;18.60;91.30;;;;;;5036266;28;20469;-76
2022/09/30 11:43:24;;;;;;;8.33;7.47;;;18.40;91.70;;;;;;5032611;28;20469;-79
2022/09/30 11:46:16;;;;;;;11.40;8.30;;;18.50;92.20;;;;;;5026794;28;20477;-77
2022/09/30 11:49:03;;;;;;;10.33;8.30;;;18.40;92.60;;;;;;5041633;28;20483;-77
2022/09/30 11:51:40;;;;;;;10.60;9.27;;;18.50;92.60;;;;;;5052157;28;20460;-78
2022/09/30 11:54:22;;;;;;;11.63;9.83;;;18.30;92.60;;;;;;5028283;28;20518;-78
2022/09/30 11:56:56;;;;;;;12.23;10.67;;;18.10;93.30;;;;;;5042002;28;20473;-78
2022/09/30 11:59:27;;;;;;;11.60;9.67;;;18.00;94.20;;;;;;5060327;28;20786;-77
2022/09/30 12:01:59;;;;;;;11.37;9.03;;;18.30;94.20;;;;;;5056819;28;20472;-77
2022/09/30 12:04:30;;;;;;;9.63;8.73;;;18.50;94.10;;;;;;5061070;28;20511;-76
2022/09/30 12:07:04;;;;;;;10.10;8.20;;;18.50;93.00;;;;;;5057655;28;20923;-77
2022/09/30 12:09:36;;;;;;;9.53;8.63;;;18.50;93.10;;;;;;5045438;28;20541;-77
2022/09/30 12:12:07;;;;;;;10.60;9.17;;;18.60;92.50;;;;;;5055204;28;20450;-75
2022/09/30 12:14:39;;;;;;;12.53;9.57;;;18.30;92.90;;;;;;5043265;28;20504;-75
2022/09/30 12:17:18;;;;;;;13.60;8.87;;;17.90;92.40;;;;;;5040787;28;20497;-77
2022/09/30 12:19:49;;;;;;;8.83;7.80;;;18.00;92.60;;;;;;5040624;28;20543;-77
2022/09/30 12:22:24;;;;;;;9.50;8.50;;;18.20;92.30;;;;;;5044451;28;20458;-76
2022/09/30 12:24:51;;;;;;;11.60;10.50;;;18.20;92.00;;;;;;5044057;28;20525;-77
2022/09/30 12:27:25;;;;;;;13.23;10.13;;;18.10;92.50;;;;;;5066880;28;20513;-77
2022/09/30 12:30:17;;;;;;;9.83;8.83;;;18.10;93.20;;;;;;5060628;28;20914;-77
2022/09/30 12:33:16;;;;;;;10.73;9.40;;;18.30;93.00;;;;;;5024720;28;20913;-77
2022/09/30 12:36:23;;;;;;;10.17;9.07;;;18.40;92.80;;;;;;5047972;28;20507;-76
2022/09/30 12:39:50;;;;;;;11.80;9.37;;;18.20;92.20;;;;;;5017313;28;20792;-76
2022/09/30 12:42:49;;;;;;;9.87;8.87;;;17.80;93.20;;;;;;5035663;28;20878;-78
2022/09/30 12:45:53;;;;;;;10.53;8.93;;;17.80;93.40;;;;;;5030613;28;20454;-76
2022/09/30 12:48:23;;;;;;;11.07;9.93;;;17.60;93.50;;;;;;5019906;28;20592;-76
2022/09/30 12:50:53;;;;;;;15.07;13.00;;;17.50;93.70;;;;;;5042334;28;20506;-75
2022/09/30 12:53:26;;;;;;;9.67;8.67;;;17.50;93.90;;;;;;5045369;28;20473;-77
2022/09/30 12:56:03;;;;;;;9.23;7.97;;;17.60;93.90;;;;;;5049385;28;20486;-76
2022/09/30 12:58:35;;;;;;;9.90;8.90;;;17.70;92.90;;;;;;5029976;28;20495;-76
2022/09/30 13:01:07;;;;;;;9.80;8.80;;;17.60;92.80;;;;;;5046104;28;20572;-77
2022/09/30 13:03:50;;;;;;;9.63;8.50;;;17.70;92.70;;;;;;5051304;28;20485;-75
2022/09/30 13:06:19;;;;;;;11.47;9.97;;;17.80;93.10;;;;;;5038338;28;20981;-76